createdAt,value
2023-05-02T00:00:42.838Z,25.66
2023-05-02T00:01:42.871Z,25.67
2023-05-02T00:02:43.031Z,25.67
2023-05-02T00:03:42.936Z,25.69
2023-05-02T00:04:43.204Z,25.69
2023-05-02T00:05:42.820Z,25.70
2023-05-02T00:06:42.882Z,25.69
2023-05-02T00:07:42.793Z,25.66
2023-05-02T00:08:42.779Z,25.69
2023-05-02T00:09:42.800Z,25.69
2023-05-02T00:10:42.832Z,25.67
2023-05-02T00:11:42.786Z,25.67
2023-05-02T00:12:42.794Z,25.66
2023-05-02T00:13:42.766Z,25.67
2023-05-02T00:14:43.607Z,25.70
2023-05-02T00:15:42.775Z,25.69
2023-05-02T00:16:42.815Z,25.67
2023-05-02T00:17:42.791Z,25.64
2023-05-02T00:18:42.772Z,25.67
2023-05-02T00:19:42.727Z,25.66
2023-05-02T00:20:42.734Z,25.67
2023-05-02T00:21:42.714Z,25.66
2023-05-02T00:22:42.686Z,25.66
2023-05-02T00:23:42.708Z,25.67
2023-05-02T00:24:43.084Z,25.70
2023-05-02T00:25:42.740Z,25.69
2023-05-02T00:26:42.759Z,25.67
2023-05-02T00:27:42.820Z,25.69
2023-05-02T00:28:42.902Z,25.66
2023-05-02T00:29:42.954Z,25.67
2023-05-02T00:30:43.018Z,25.69
2023-05-02T00:31:43.207Z,25.69
2023-05-02T00:32:43.187Z,25.69
2023-05-02T00:33:43.200Z,25.67
2023-05-02T00:34:43.582Z,25.67
2023-05-02T00:35:43.333Z,25.69
2023-05-02T00:36:43.347Z,25.67
2023-05-02T00:37:43.407Z,25.67
2023-05-02T00:38:43.482Z,25.67
2023-05-02T00:39:43.534Z,25.69
2023-05-02T00:40:43.564Z,25.67
2023-05-02T00:41:43.656Z,25.66
2023-05-02T00:42:43.721Z,25.67
2023-05-02T00:43:43.729Z,25.67
2023-05-02T00:44:43.783Z,25.64
2023-05-02T00:45:43.834Z,25.67
2023-05-02T00:46:43.938Z,25.66
2023-05-02T00:47:43.976Z,25.66
2023-05-02T00:48:44.039Z,25.67
2023-05-02T00:49:45.578Z,25.67
2023-05-02T00:50:44.120Z,25.69
2023-05-02T00:51:44.196Z,25.69
2023-05-02T00:52:44.219Z,25.66
2023-05-02T00:53:44.270Z,25.70
2023-05-02T00:54:44.414Z,25.69
2023-05-02T00:55:44.384Z,25.69
2023-05-02T00:56:44.437Z,25.70
2023-05-02T00:57:44.478Z,25.67
2023-05-02T00:58:44.545Z,25.70
2023-05-02T00:59:44.607Z,25.67
2023-05-02T01:00:44.646Z,25.64
2023-05-02T01:01:44.870Z,25.67
2023-05-02T01:02:44.915Z,25.64
2023-05-02T01:03:44.904Z,25.66
2023-05-02T01:04:44.896Z,25.66
2023-05-02T01:05:44.921Z,25.64
2023-05-02T01:06:45.155Z,25.63
2023-05-02T01:07:45.035Z,25.64
2023-05-02T01:08:45.086Z,25.66
2023-05-02T01:09:45.149Z,25.66
2023-05-02T01:10:45.201Z,25.66
2023-05-02T01:11:45.258Z,25.64
2023-05-02T01:12:45.319Z,25.66
2023-05-02T01:13:45.396Z,25.62
2023-05-02T01:14:45.456Z,25.64
2023-05-02T01:15:45.562Z,25.62
2023-05-02T01:16:45.551Z,25.63
2023-05-02T01:17:45.610Z,25.64
2023-05-02T01:18:45.606Z,25.63
2023-05-02T01:19:45.663Z,25.64
2023-05-02T01:20:45.722Z,25.64
2023-05-02T01:21:45.771Z,25.64
2023-05-02T01:22:45.779Z,25.66
2023-05-02T01:23:45.827Z,25.66
2023-05-02T01:24:45.904Z,25.64
2023-05-02T01:25:45.938Z,25.66
2023-05-02T01:26:46.029Z,25.64
2023-05-02T01:27:46.051Z,25.64
2023-05-02T01:28:46.085Z,25.63
2023-05-02T01:29:46.182Z,25.63
2023-05-02T01:30:46.247Z,25.63
2023-05-02T01:31:46.321Z,25.64
2023-05-02T01:32:46.385Z,25.66
2023-05-02T01:33:46.386Z,25.62
2023-05-02T01:34:46.464Z,25.64
2023-05-02T01:35:46.490Z,25.64
2023-05-02T01:36:46.559Z,25.63
2023-05-02T01:37:46.590Z,25.64
2023-05-02T01:38:46.661Z,25.64
2023-05-02T01:39:46.686Z,25.63
2023-05-02T01:40:46.765Z,25.64
2023-05-02T01:41:46.841Z,25.63
2023-05-02T01:42:46.864Z,25.63
2023-05-02T01:43:46.911Z,25.64
2023-05-02T01:44:46.979Z,25.66
2023-05-02T01:45:47.029Z,25.67
2023-05-02T01:46:47.132Z,25.63
2023-05-02T01:47:47.192Z,25.66
2023-05-02T01:48:47.190Z,25.63
2023-05-02T01:49:47.278Z,25.64
2023-05-02T01:50:47.319Z,25.66
2023-05-02T01:51:47.376Z,25.63
2023-05-02T01:52:47.398Z,25.64
2023-05-02T01:53:47.460Z,25.67
2023-05-02T01:54:47.524Z,25.64
2023-05-02T01:55:47.593Z,25.66
2023-05-02T01:56:47.609Z,25.64
2023-05-02T01:57:47.678Z,25.64
2023-05-02T01:58:47.724Z,25.67
2023-05-02T01:59:47.780Z,25.64
2023-05-02T02:00:47.834Z,25.67
2023-05-02T02:01:47.885Z,25.63
2023-05-02T02:02:47.986Z,25.66
2023-05-02T02:03:48.025Z,25.63
2023-05-02T02:04:48.114Z,25.64
2023-05-02T02:05:48.110Z,25.62
2023-05-02T02:06:48.343Z,25.63
2023-05-02T02:07:48.231Z,25.62
2023-05-02T02:08:48.247Z,25.63
2023-05-02T02:09:48.312Z,25.62
2023-05-02T02:10:48.392Z,25.66
2023-05-02T02:11:48.408Z,25.63
2023-05-02T02:12:48.446Z,25.64
2023-05-02T02:13:48.489Z,25.63
2023-05-02T02:14:48.560Z,25.64
2023-05-02T02:15:48.593Z,25.63
2023-05-02T02:16:48.710Z,25.63
2023-05-02T02:17:48.783Z,25.64
2023-05-02T02:18:48.764Z,25.63
2023-05-02T02:19:48.819Z,25.63
2023-05-02T02:20:48.875Z,25.64
2023-05-02T02:21:48.907Z,25.64
2023-05-02T02:22:48.997Z,25.64
2023-05-02T02:23:49.034Z,25.64
2023-05-02T02:24:49.119Z,25.66
2023-05-02T02:25:49.121Z,25.66
2023-05-02T02:26:49.191Z,25.64
2023-05-02T02:27:49.279Z,25.66
2023-05-02T02:28:49.285Z,25.66
2023-05-02T02:29:49.357Z,25.66
2023-05-02T02:30:49.437Z,25.63
2023-05-02T02:31:49.494Z,25.62
2023-05-02T02:32:49.533Z,25.66
2023-05-02T02:33:49.583Z,25.66
2023-05-02T02:34:49.601Z,25.63
2023-05-02T02:35:49.665Z,25.64
2023-05-02T02:36:49.727Z,25.66
2023-05-02T02:37:49.788Z,25.63
2023-05-02T02:38:49.842Z,25.64
2023-05-02T02:39:49.907Z,25.64
2023-05-02T02:40:49.943Z,25.64
2023-05-02T02:41:49.985Z,25.63
2023-05-02T02:42:50.054Z,25.62
2023-05-02T02:43:50.116Z,25.62
2023-05-02T02:44:50.226Z,25.64
2023-05-02T02:45:50.239Z,25.62
2023-05-02T02:46:50.316Z,25.62
2023-05-02T02:47:50.368Z,25.62
2023-05-02T02:48:50.391Z,25.63
2023-05-02T02:49:50.472Z,25.63
2023-05-02T02:50:50.469Z,25.62
2023-05-02T02:51:50.530Z,25.63
2023-05-02T02:52:50.562Z,25.63
2023-05-02T02:53:50.610Z,25.63
2023-05-02T02:54:50.678Z,25.64
2023-05-02T02:55:50.780Z,25.63
2023-05-02T02:56:50.758Z,25.63
2023-05-02T02:57:50.829Z,25.64
2023-05-02T02:58:50.885Z,25.63
2023-05-02T02:59:50.925Z,25.63
2023-05-02T03:00:51.015Z,25.60
2023-05-02T03:01:51.056Z,25.62
2023-05-02T03:02:51.089Z,25.60
2023-05-02T03:03:51.215Z,25.63
2023-05-02T03:04:51.220Z,25.60
2023-05-02T03:05:51.294Z,25.62
2023-05-02T03:06:51.402Z,25.63
2023-05-02T03:07:51.423Z,25.59
2023-05-02T03:08:51.489Z,25.60
2023-05-02T03:09:51.496Z,25.62
2023-05-02T03:10:51.553Z,25.62
2023-05-02T03:11:51.578Z,25.62
2023-05-02T03:12:51.649Z,25.62
2023-05-02T03:13:51.688Z,25.64
2023-05-02T03:14:51.769Z,25.62
2023-05-02T03:15:51.880Z,25.63
2023-05-02T03:16:51.850Z,25.63
2023-05-02T03:17:51.939Z,25.63
2023-05-02T03:18:51.965Z,25.63
2023-05-02T03:19:52.021Z,25.64
2023-05-02T03:20:52.063Z,25.63
2023-05-02T03:21:52.136Z,25.63
2023-05-02T03:22:52.192Z,25.62
2023-05-02T03:23:52.273Z,25.63
2023-05-02T03:24:52.334Z,25.62
2023-05-02T03:25:52.379Z,25.63
2023-05-02T03:26:52.424Z,25.64
2023-05-02T03:27:52.444Z,25.63
2023-05-02T03:28:52.515Z,25.62
2023-05-02T03:29:52.584Z,25.63
2023-05-02T03:30:52.627Z,25.62
2023-05-02T03:31:52.790Z,25.60
2023-05-02T03:32:52.754Z,25.62
2023-05-02T03:33:52.784Z,25.63
2023-05-02T03:34:52.881Z,25.63
2023-05-02T03:35:52.878Z,25.62
2023-05-02T03:36:52.938Z,25.63
2023-05-02T03:37:53.012Z,25.62
2023-05-02T03:38:53.038Z,25.60
2023-05-02T03:39:53.098Z,25.60
2023-05-02T03:40:53.140Z,25.57
2023-05-02T03:41:53.214Z,25.59
2023-05-02T03:42:53.252Z,25.60
2023-05-02T03:43:53.346Z,25.60
2023-05-02T03:44:53.386Z,25.59
2023-05-02T03:45:53.424Z,25.59
2023-05-02T03:46:53.520Z,25.59
2023-05-02T03:47:53.605Z,25.60
2023-05-02T03:48:53.621Z,25.60
2023-05-02T03:49:54.678Z,25.60
2023-05-02T03:50:53.711Z,25.62
2023-05-02T03:51:53.778Z,25.59
2023-05-02T03:52:53.857Z,25.59
2023-05-02T03:53:53.882Z,25.60
2023-05-02T03:54:53.937Z,25.59
2023-05-02T03:55:53.988Z,25.57
2023-05-02T03:56:54.045Z,25.60
2023-05-02T03:57:54.086Z,25.59
2023-05-02T03:58:54.124Z,25.59
2023-05-02T03:59:54.191Z,25.60
2023-05-02T04:00:54.242Z,25.60
2023-05-02T04:01:54.359Z,25.59
2023-05-02T04:02:54.363Z,25.60
2023-05-02T04:03:54.488Z,25.60
2023-05-02T04:04:54.508Z,25.60
2023-05-02T04:05:54.541Z,25.62
2023-05-02T04:06:54.622Z,25.59
2023-05-02T04:07:54.595Z,25.62
2023-05-02T04:08:54.679Z,25.62
2023-05-02T04:09:54.718Z,25.60
2023-05-02T04:10:54.732Z,25.60
2023-05-02T04:11:54.853Z,25.60
2023-05-02T04:12:54.839Z,25.63
2023-05-02T04:13:54.898Z,25.60
2023-05-02T04:14:54.957Z,25.63
2023-05-02T04:15:55.020Z,25.63
2023-05-02T04:16:55.176Z,25.60
2023-05-02T04:17:55.138Z,25.60
2023-05-02T04:18:55.204Z,25.59
2023-05-02T04:19:55.297Z,25.62
2023-05-02T04:20:55.313Z,25.59
2023-05-02T04:21:55.357Z,25.60
2023-05-02T04:22:55.404Z,25.62
2023-05-02T04:23:55.469Z,25.62
2023-05-02T04:24:55.523Z,25.60
2023-05-02T04:25:55.595Z,25.60
2023-05-02T04:26:55.646Z,25.60
2023-05-02T04:27:55.671Z,25.59
2023-05-02T04:28:55.711Z,25.60
2023-05-02T04:29:55.825Z,25.59
2023-05-02T04:30:55.862Z,25.57
2023-05-02T04:31:55.889Z,25.59
2023-05-02T04:32:55.966Z,25.59
2023-05-02T04:33:56.021Z,25.62
2023-05-02T04:34:56.015Z,25.59
2023-05-02T04:35:56.063Z,25.59
2023-05-02T04:36:56.136Z,25.60
2023-05-02T04:37:56.163Z,25.60
2023-05-02T04:38:56.206Z,25.59
2023-05-02T04:39:56.286Z,25.62
2023-05-02T04:40:56.295Z,25.60
2023-05-02T04:41:56.430Z,25.60
2023-05-02T04:42:56.409Z,25.59
2023-05-02T04:43:56.461Z,25.62
2023-05-02T04:44:56.543Z,25.62
2023-05-02T04:45:56.618Z,25.62
2023-05-02T04:46:56.653Z,25.63
2023-05-02T04:47:56.728Z,25.62
2023-05-02T04:48:56.724Z,25.62
2023-05-02T04:49:56.889Z,25.60
2023-05-02T04:50:56.880Z,25.62
2023-05-02T04:51:57.005Z,25.64
2023-05-02T04:52:56.968Z,25.60
2023-05-02T04:53:57.005Z,25.60
2023-05-02T04:54:57.126Z,25.62
2023-05-02T04:55:57.123Z,25.59
2023-05-02T04:56:57.199Z,25.62
2023-05-02T04:57:57.224Z,25.63
2023-05-02T04:58:57.298Z,25.63
2023-05-02T04:59:57.485Z,25.62
2023-05-02T05:00:57.396Z,25.62
2023-05-02T05:01:57.534Z,25.60
2023-05-02T05:02:59.278Z,25.62
2023-05-02T05:03:57.617Z,25.62
2023-05-02T05:04:57.521Z,25.63
2023-05-02T05:05:57.512Z,25.63
2023-05-02T05:06:57.537Z,25.63
2023-05-02T05:07:57.536Z,25.63
2023-05-02T05:08:57.474Z,25.66
2023-05-02T05:09:57.582Z,25.63
2023-05-02T05:10:57.549Z,25.66
2023-05-02T05:11:57.453Z,25.64
2023-05-02T05:12:57.457Z,25.63
2023-05-02T05:13:57.455Z,25.64
2023-05-02T05:14:57.427Z,25.64
2023-05-02T05:15:57.495Z,25.63
2023-05-02T05:16:57.574Z,25.63
2023-05-02T05:17:57.514Z,25.64
2023-05-02T05:18:57.449Z,25.67
2023-05-02T05:19:57.684Z,25.64
2023-05-02T05:20:57.452Z,25.64
2023-05-02T05:21:57.398Z,25.63
2023-05-02T05:22:57.437Z,25.64
2023-05-02T05:24:00.212Z,25.66
2023-05-02T05:24:57.376Z,25.62
2023-05-02T05:25:57.400Z,25.66
2023-05-02T05:26:58.222Z,25.63
2023-05-02T05:27:57.368Z,25.64
2023-05-02T05:28:58.208Z,25.63
2023-05-02T05:29:58.286Z,25.64
2023-05-02T05:30:57.316Z,25.66
2023-05-02T05:31:57.383Z,25.66
2023-05-02T05:32:57.372Z,25.62
2023-05-02T05:33:57.337Z,25.50
2023-05-02T05:34:57.695Z,25.43
2023-05-02T05:35:57.301Z,25.46
2023-05-02T05:36:59.164Z,25.43
2023-05-02T05:37:57.911Z,25.25
2023-05-02T05:38:57.266Z,25.22
2023-05-02T05:39:57.447Z,25.20
2023-05-02T05:40:57.327Z,25.10
2023-05-02T05:41:57.264Z,25.05
2023-05-02T05:42:57.257Z,25.08
2023-05-02T05:43:57.309Z,25.10
2023-05-02T05:44:57.276Z,25.16
2023-05-02T05:45:57.273Z,25.18
2023-05-02T05:46:58.289Z,25.20
2023-05-02T05:47:57.458Z,25.22
2023-05-02T05:48:58.207Z,25.25
2023-05-02T05:49:57.921Z,25.28
2023-05-02T05:50:57.514Z,25.29
2023-05-02T05:51:57.568Z,25.30
2023-05-02T05:53:00.194Z,25.34
2023-05-02T05:53:57.971Z,25.36
2023-05-02T05:54:58.273Z,25.37
2023-05-02T05:55:57.940Z,25.42
2023-05-02T05:56:58.813Z,25.40
2023-05-02T05:57:58.276Z,25.43
2023-05-02T05:58:58.336Z,25.42
2023-05-02T05:59:58.444Z,25.46
2023-05-02T06:00:59.227Z,25.49
2023-05-02T06:01:58.305Z,25.42
2023-05-02T06:02:58.426Z,25.43
2023-05-02T06:03:58.462Z,25.49
2023-05-02T06:04:58.515Z,25.52
2023-05-02T06:05:58.577Z,25.59
2023-05-02T06:06:58.590Z,25.62
2023-05-02T06:07:58.577Z,25.60
2023-05-02T06:08:58.648Z,25.62
2023-05-02T06:09:58.864Z,25.62
2023-05-02T06:10:58.679Z,25.62
2023-05-02T06:11:58.770Z,25.62
2023-05-02T06:12:58.807Z,25.63
2023-05-02T06:13:58.884Z,25.63
2023-05-02T06:14:58.900Z,25.63
2023-05-02T06:15:59.217Z,25.64
2023-05-02T06:16:59.016Z,25.64
2023-05-02T06:17:59.041Z,25.64
2023-05-02T06:18:59.153Z,25.62
2023-05-02T06:19:59.478Z,25.63
2023-05-02T06:20:59.259Z,25.62
2023-05-02T06:21:59.307Z,25.62
2023-05-02T06:22:59.367Z,25.63
2023-05-02T06:23:59.380Z,25.59
2023-05-02T06:24:59.454Z,25.59
2023-05-02T06:25:59.483Z,25.59
2023-05-02T06:26:59.541Z,25.56
2023-05-02T06:27:59.673Z,25.60
2023-05-02T06:28:59.658Z,25.59
2023-05-02T06:30:00.052Z,25.60
2023-05-02T06:30:59.922Z,25.60
2023-05-02T06:31:59.878Z,25.59
2023-05-02T06:33:00.023Z,25.59
2023-05-02T06:33:59.923Z,25.57
2023-05-02T06:34:59.993Z,25.60
2023-05-02T06:36:01.967Z,25.60
2023-05-02T06:37:00.229Z,25.57
2023-05-02T06:38:00.281Z,25.60
2023-05-02T06:39:00.315Z,25.56
2023-05-02T06:40:00.992Z,25.57
2023-05-02T06:41:00.352Z,25.57
2023-05-02T06:42:00.607Z,25.57
2023-05-02T06:43:00.475Z,25.59
2023-05-02T06:44:00.527Z,25.56
2023-05-02T06:45:00.557Z,25.53
2023-05-02T06:46:00.633Z,25.56
2023-05-02T06:47:00.826Z,25.56
2023-05-02T06:48:00.806Z,25.59
2023-05-02T06:49:00.850Z,25.57
2023-05-02T06:50:01.170Z,25.59
2023-05-02T06:51:00.883Z,25.62
2023-05-02T06:52:01.407Z,25.59
2023-05-02T06:53:01.174Z,25.63
2023-05-02T06:54:01.040Z,25.60
2023-05-02T06:55:01.081Z,25.63
2023-05-02T06:56:01.156Z,25.63
2023-05-02T06:57:01.168Z,25.64
2023-05-02T06:58:01.761Z,25.66
2023-05-02T06:59:01.311Z,25.66
2023-05-02T07:00:02.763Z,25.66
2023-05-02T07:01:01.436Z,25.69
2023-05-02T07:02:03.043Z,25.67
2023-05-02T07:03:01.466Z,25.64
2023-05-02T07:04:01.499Z,25.69
2023-05-02T07:05:01.420Z,25.66
2023-05-02T07:06:01.442Z,25.64
2023-05-02T07:07:01.537Z,25.64
2023-05-02T07:08:01.499Z,25.64
2023-05-02T07:09:01.421Z,25.66
2023-05-02T07:10:01.935Z,25.64
2023-05-02T07:11:01.402Z,25.63
2023-05-02T07:12:01.351Z,25.63
2023-05-02T07:13:01.360Z,25.64
2023-05-02T07:14:01.361Z,25.62
2023-05-02T07:15:01.351Z,25.59
2023-05-02T07:16:01.386Z,25.62
2023-05-02T07:17:01.364Z,25.62
2023-05-02T07:18:01.412Z,25.64
2023-05-02T07:19:01.343Z,25.66
2023-05-02T07:20:01.431Z,25.64
2023-05-02T07:21:01.359Z,25.66
2023-05-02T07:22:01.415Z,25.67
2023-05-02T07:23:01.739Z,25.67
2023-05-02T07:24:01.288Z,25.67
2023-05-02T07:25:01.275Z,25.70
2023-05-02T07:26:01.243Z,25.67
2023-05-02T07:27:01.300Z,25.70
2023-05-02T07:28:01.244Z,25.69
2023-05-02T07:29:01.297Z,25.72
2023-05-02T07:30:01.637Z,25.72
2023-05-02T07:31:01.223Z,25.72
2023-05-02T07:32:01.327Z,25.72
2023-05-02T07:33:01.438Z,25.66
2023-05-02T07:34:01.370Z,25.67
2023-05-02T07:35:03.287Z,25.67
2023-05-02T07:36:01.451Z,25.66
2023-05-02T07:37:01.560Z,25.67
2023-05-02T07:38:01.597Z,25.66
2023-05-02T07:39:01.599Z,25.67
2023-05-02T07:40:02.120Z,25.70
2023-05-02T07:41:01.716Z,25.74
2023-05-02T07:42:01.813Z,25.70
2023-05-02T07:43:01.819Z,25.72
2023-05-02T07:44:01.856Z,25.70
2023-05-02T07:45:01.996Z,25.73
2023-05-02T07:46:02.019Z,25.70
2023-05-02T07:47:02.066Z,25.73
2023-05-02T07:48:02.118Z,25.74
2023-05-02T07:49:02.095Z,25.73
2023-05-02T07:50:02.290Z,25.72
2023-05-02T07:51:02.240Z,25.76
2023-05-02T07:52:02.228Z,25.74
2023-05-02T07:53:02.290Z,25.76
2023-05-02T07:54:02.348Z,25.77
2023-05-02T07:55:02.767Z,25.76
2023-05-02T07:56:02.479Z,25.77
2023-05-02T07:57:02.680Z,25.76
2023-05-02T07:58:02.620Z,25.77
2023-05-02T07:59:04.982Z,25.79
2023-05-02T08:00:03.190Z,25.80
2023-05-02T08:01:02.674Z,25.77
2023-05-02T08:02:02.648Z,25.76
2023-05-02T08:03:02.797Z,25.79
2023-05-02T08:04:02.753Z,25.76
2023-05-02T08:05:02.723Z,25.77
2023-05-02T08:06:02.643Z,25.77
2023-05-02T08:07:02.564Z,25.79
2023-05-02T08:08:02.561Z,25.79
2023-05-02T08:09:02.620Z,25.77
2023-05-02T08:10:03.048Z,25.77
2023-05-02T08:11:02.530Z,25.76
2023-05-02T08:12:02.504Z,25.74
2023-05-02T08:13:02.524Z,25.77
2023-05-02T08:14:02.561Z,25.74
2023-05-02T08:15:02.770Z,25.73
2023-05-02T08:16:02.518Z,25.76
2023-05-02T08:17:02.663Z,25.76
2023-05-02T08:18:02.682Z,25.79
2023-05-02T08:19:02.505Z,25.77
2023-05-02T08:20:02.895Z,25.79
2023-05-02T08:21:02.487Z,25.74
2023-05-02T08:22:02.458Z,25.74
2023-05-02T08:23:02.453Z,25.73
2023-05-02T08:24:02.548Z,25.66
2023-05-02T08:25:02.427Z,25.72
2023-05-02T08:26:03.395Z,25.72
2023-05-02T08:27:02.568Z,25.64
2023-05-02T08:28:02.407Z,25.64
2023-05-02T08:29:02.382Z,25.69
2023-05-02T08:30:02.756Z,25.73
2023-05-02T08:31:03.287Z,25.76
2023-05-02T08:32:02.511Z,25.76
2023-05-02T08:33:02.416Z,25.77
2023-05-02T08:34:02.422Z,25.79
2023-05-02T08:35:02.441Z,25.80
2023-05-02T08:36:02.502Z,25.84
2023-05-02T08:37:02.493Z,25.83
2023-05-02T08:38:02.563Z,25.83
2023-05-02T08:39:02.572Z,25.86
2023-05-02T08:40:02.829Z,25.86
2023-05-02T08:41:02.643Z,25.84
2023-05-02T08:42:02.672Z,25.83
2023-05-02T08:43:03.277Z,25.80
2023-05-02T08:44:02.735Z,25.81
2023-05-02T08:45:02.821Z,25.79
2023-05-02T08:46:02.804Z,25.81
2023-05-02T08:47:02.983Z,25.81
2023-05-02T08:48:02.984Z,25.79
2023-05-02T08:49:02.937Z,25.80
2023-05-02T08:50:03.377Z,25.81
2023-05-02T08:51:03.023Z,25.80
2023-05-02T08:52:03.138Z,25.83
2023-05-02T08:53:03.122Z,25.81
2023-05-02T08:54:03.166Z,25.86
2023-05-02T08:55:03.382Z,25.86
2023-05-02T08:56:03.219Z,25.86
2023-05-02T08:57:03.259Z,25.87
2023-05-02T08:58:03.253Z,25.84
2023-05-02T08:59:03.422Z,25.86
2023-05-02T09:00:03.333Z,25.87
2023-05-02T09:01:03.522Z,25.86
2023-05-02T09:02:03.422Z,25.84
2023-05-02T09:03:03.593Z,25.81
2023-05-02T09:04:03.514Z,25.86
2023-05-02T09:05:03.729Z,25.84
2023-05-02T09:06:03.690Z,25.84
2023-05-02T09:07:03.637Z,25.83
2023-05-02T09:08:03.671Z,25.84
2023-05-02T09:09:03.795Z,25.83
2023-05-02T09:10:03.782Z,25.83
2023-05-02T09:11:03.783Z,25.83
2023-05-02T09:12:03.796Z,25.84
2023-05-02T09:13:03.864Z,25.84
2023-05-02T09:14:03.895Z,25.83
2023-05-02T09:15:03.855Z,25.84
2023-05-02T09:16:03.922Z,25.83
2023-05-02T09:17:04.048Z,25.86
2023-05-02T09:18:03.998Z,25.84
2023-05-02T09:19:03.970Z,25.84
2023-05-02T09:20:04.002Z,25.86
2023-05-02T09:21:04.016Z,25.84
2023-05-02T09:22:04.122Z,25.88
2023-05-02T09:23:04.107Z,25.88
2023-05-02T09:24:04.128Z,25.90
2023-05-02T09:25:04.086Z,25.88
2023-05-02T09:26:04.153Z,25.88
2023-05-02T09:27:04.184Z,25.88
2023-05-02T09:28:04.157Z,25.88
2023-05-02T09:29:04.211Z,25.88
2023-05-02T09:30:04.238Z,25.91
2023-05-02T09:31:04.288Z,25.88
2023-05-02T09:32:04.283Z,25.91
2023-05-02T09:33:04.352Z,25.88
2023-05-02T09:34:04.308Z,25.84
2023-05-02T09:35:04.356Z,25.77
2023-05-02T09:36:04.384Z,25.77
2023-05-02T09:37:04.372Z,25.79
2023-05-02T09:38:04.863Z,25.80
2023-05-02T09:39:04.426Z,25.84
2023-05-02T09:40:04.419Z,25.83
2023-05-02T09:41:04.512Z,25.86
2023-05-02T09:42:04.481Z,25.86
2023-05-02T09:43:04.519Z,25.84
2023-05-02T09:44:04.690Z,25.87
2023-05-02T09:45:04.620Z,25.88
2023-05-02T09:46:04.982Z,25.83
2023-05-02T09:47:04.588Z,25.87
2023-05-02T09:48:05.375Z,25.84
2023-05-02T09:49:04.676Z,25.83
2023-05-02T09:50:04.789Z,25.81
2023-05-02T09:51:04.735Z,25.80
2023-05-02T09:52:04.946Z,25.81
2023-05-02T09:53:04.823Z,25.80
2023-05-02T09:54:04.835Z,25.80
2023-05-02T09:55:04.851Z,25.81
2023-05-02T09:56:05.366Z,25.80
2023-05-02T09:57:05.001Z,25.81
2023-05-02T09:58:05.015Z,25.86
2023-05-02T09:59:05.000Z,25.84
2023-05-02T10:00:05.085Z,25.80
2023-05-02T10:01:05.139Z,25.83
2023-05-02T10:02:05.185Z,25.83
2023-05-02T10:03:05.173Z,25.80
2023-05-02T10:04:05.260Z,25.84
2023-05-02T10:05:05.223Z,25.84
2023-05-02T10:06:05.623Z,25.87
2023-05-02T10:07:05.335Z,25.86
2023-05-02T10:08:05.356Z,25.84
2023-05-02T10:09:05.418Z,25.83
2023-05-02T10:10:05.452Z,25.84
2023-05-02T10:11:05.510Z,25.84
2023-05-02T10:12:05.589Z,25.83
2023-05-02T10:13:05.612Z,25.84
2023-05-02T10:14:05.665Z,25.86
2023-05-02T10:15:05.657Z,25.88
2023-05-02T10:16:05.769Z,25.86
2023-05-02T10:17:05.713Z,25.84
2023-05-02T10:18:05.813Z,25.83
2023-05-02T10:19:05.787Z,25.83
2023-05-02T10:20:05.874Z,25.81
2023-05-02T10:21:05.865Z,25.83
2023-05-02T10:22:05.913Z,25.86
2023-05-02T10:23:05.963Z,25.86
2023-05-02T10:24:06.021Z,25.86
2023-05-02T10:25:05.996Z,25.88
2023-05-02T10:26:06.085Z,25.80
2023-05-02T10:27:06.788Z,25.79
2023-05-02T10:28:06.855Z,25.83
2023-05-02T10:29:06.100Z,25.83
2023-05-02T10:30:06.087Z,25.81
2023-05-02T10:31:06.202Z,25.87
2023-05-02T10:32:06.251Z,25.87
2023-05-02T10:33:06.269Z,25.81
2023-05-02T10:34:06.162Z,25.86
2023-05-02T10:35:06.169Z,25.88
2023-05-02T10:36:06.183Z,25.88
2023-05-02T10:37:06.200Z,25.87
2023-05-02T10:38:06.274Z,25.88
2023-05-02T10:39:06.226Z,25.90
2023-05-02T10:40:06.406Z,25.93
2023-05-02T10:41:06.265Z,25.96
2023-05-02T10:42:06.294Z,25.94
2023-05-02T10:43:06.403Z,25.94
2023-05-02T10:44:06.344Z,25.97
2023-05-02T10:45:06.369Z,25.97
2023-05-02T10:46:06.382Z,25.97
2023-05-02T10:47:06.578Z,26.00
2023-05-02T10:48:06.476Z,25.98
2023-05-02T10:49:06.459Z,25.98
2023-05-02T10:50:06.489Z,26.00
2023-05-02T10:51:06.533Z,25.98
2023-05-02T10:52:06.555Z,25.98
2023-05-02T10:53:06.605Z,26.00
2023-05-02T10:54:06.618Z,26.01
2023-05-02T10:55:06.631Z,25.94
2023-05-02T10:56:06.659Z,25.93
2023-05-02T10:57:06.687Z,25.93
2023-05-02T10:58:06.844Z,25.91
2023-05-02T10:59:06.789Z,25.91
2023-05-02T11:00:06.741Z,25.96
2023-05-02T11:01:06.818Z,25.93
2023-05-02T11:02:07.895Z,25.96
2023-05-02T11:03:07.067Z,25.94
2023-05-02T11:04:06.867Z,25.97
2023-05-02T11:05:06.892Z,25.96
2023-05-02T11:06:06.944Z,25.98
2023-05-02T11:07:06.944Z,25.96
2023-05-02T11:08:07.102Z,25.96
2023-05-02T11:09:06.953Z,25.97
2023-05-02T11:10:06.978Z,26.00
2023-05-02T11:11:07.029Z,25.97
2023-05-02T11:12:07.041Z,25.97
2023-05-02T11:13:07.105Z,25.98
2023-05-02T11:14:07.055Z,25.97
2023-05-02T11:15:07.087Z,25.94
2023-05-02T11:16:07.269Z,25.94
2023-05-02T11:17:07.166Z,25.94
2023-05-02T11:18:07.328Z,25.79
2023-05-02T11:19:07.198Z,25.87
2023-05-02T11:20:07.237Z,25.94
2023-05-02T11:21:07.228Z,25.96
2023-05-02T11:22:07.349Z,25.96
2023-05-02T11:23:07.251Z,26.00
2023-05-02T11:24:07.274Z,26.04
2023-05-02T11:25:07.269Z,26.08
2023-05-02T11:26:07.218Z,26.08
2023-05-02T11:27:07.221Z,26.10
2023-05-02T11:28:07.260Z,26.08
2023-05-02T11:29:07.256Z,26.08
2023-05-02T11:30:07.237Z,26.05
2023-05-02T11:31:07.256Z,26.08
2023-05-02T11:32:07.324Z,26.08
2023-05-02T11:33:07.315Z,26.08
2023-05-02T11:34:07.293Z,26.07
2023-05-02T11:35:07.288Z,26.08
2023-05-02T11:36:07.359Z,26.05
2023-05-02T11:37:07.332Z,26.05
2023-05-02T11:38:07.368Z,26.04
2023-05-02T11:39:07.366Z,26.04
2023-05-02T11:40:07.495Z,26.07
2023-05-02T11:41:07.429Z,26.03
2023-05-02T11:42:07.459Z,26.04
2023-05-02T11:43:07.481Z,26.01
2023-05-02T11:44:07.504Z,26.01
2023-05-02T11:45:08.342Z,26.00
2023-05-02T11:46:07.941Z,26.01
2023-05-02T11:47:07.583Z,26.01
2023-05-02T11:48:07.764Z,26.01
2023-05-02T11:49:09.339Z,26.00
2023-05-02T11:50:07.767Z,26.03
2023-05-02T11:51:07.803Z,26.01
2023-05-02T11:52:07.918Z,26.00
2023-05-02T11:53:16.370Z,26.01
2023-05-02T11:54:08.044Z,26.01
2023-05-02T11:55:09.084Z,26.03
2023-05-02T11:56:08.065Z,25.98
2023-05-02T11:57:08.096Z,26.03
2023-05-02T11:58:08.190Z,26.05
2023-05-02T11:59:08.353Z,26.07
2023-05-02T12:00:08.283Z,26.04
2023-05-02T12:01:09.565Z,26.07
2023-05-02T12:02:08.287Z,26.08
2023-05-02T12:03:08.307Z,26.07
2023-05-02T12:04:08.545Z,26.07
2023-05-02T12:05:08.392Z,26.05
2023-05-02T12:06:08.325Z,26.07
2023-05-02T12:07:10.130Z,26.07
2023-05-02T12:08:08.508Z,26.07
2023-05-02T12:09:08.846Z,26.07
2023-05-02T12:10:08.559Z,26.05
2023-05-02T12:11:08.593Z,26.04
2023-05-02T12:12:08.545Z,26.03
2023-05-02T12:13:10.048Z,26.05
2023-05-02T12:14:08.633Z,26.04
2023-05-02T12:15:08.657Z,26.05
2023-05-02T12:16:08.835Z,26.05
2023-05-02T12:17:08.750Z,26.04
2023-05-02T12:18:08.691Z,26.04
2023-05-02T12:19:08.669Z,26.01
2023-05-02T12:20:08.693Z,26.01
2023-05-02T12:21:08.702Z,26.00
2023-05-02T12:22:08.781Z,25.96
2023-05-02T12:23:08.708Z,25.98
2023-05-02T12:24:08.715Z,25.97
2023-05-02T12:25:08.737Z,25.91
2023-05-02T12:26:08.709Z,25.97
2023-05-02T12:27:08.737Z,26.05
2023-05-02T12:28:08.732Z,26.03
2023-05-02T12:29:08.742Z,26.10
2023-05-02T12:30:08.756Z,26.14
2023-05-02T12:31:08.778Z,26.14
2023-05-02T12:32:08.756Z,26.14
2023-05-02T12:33:08.844Z,26.18
2023-05-02T12:34:08.804Z,26.16
2023-05-02T12:35:08.811Z,26.17
2023-05-02T12:36:08.777Z,26.17
2023-05-02T12:37:08.788Z,26.16
2023-05-02T12:38:08.781Z,26.14
2023-05-02T12:39:08.964Z,26.17
2023-05-02T12:40:08.792Z,26.16
2023-05-02T12:41:08.774Z,26.13
2023-05-02T12:42:08.763Z,26.14
2023-05-02T12:43:08.767Z,26.16
2023-05-02T12:44:08.782Z,26.14
2023-05-02T12:45:08.786Z,26.16
2023-05-02T12:46:08.816Z,26.17
2023-05-02T12:48:08.851Z,26.14
2023-05-02T12:49:08.828Z,26.16
2023-05-02T12:50:08.798Z,26.16
2023-05-02T12:51:08.793Z,26.16
2023-05-02T12:52:08.804Z,26.11
2023-05-02T12:53:08.823Z,26.13
2023-05-02T12:54:08.828Z,26.11